»·PEaware :: N755ME 0O2-1L1

N755ME :: 0O2-1L1

FLIGHT INFORMATION

Flight Status: Arrived
Operator: Privately registered:
United States
More flights under this callsign
Pilot: Michael D. (15839)
Aircraft: BEECH AIRCRAFT DEBONAIR BONANZA
(BE33)
More flights by this aircraft type
Origin: 0O2 Baker
United States
Destination: 1L1 Lincoln Co
United States
More flights between these airports :: More routes between these airports
Route:
File this flight plan on PilotEdge
Remarks:
Altitude:
(Current/Filed)
11,500ft
Speed:
(Current/Filed)
140kts
Departed: 11-Jun-19 06:29 PM
Arrived: 11-Jun-19 07:29 PM
Distance/Time
Traveled:
170nm/1:00
Distance/Time
To Go:
Arrived

Flight Plot

Page will automatically refresh every two minutes.


Map Options




Map Legend


Flown Route
Filed Route
Departure Airport
Arrival Airport
Navaid (VOR, NDB)
Fix

Horizontal Profiles

Position Reports

Time Latitude Longitude Heading Altitude Ground
Speed
11-Jun-19 18:28 35.583261 -115.841516 25 11341ft 83kts
11-Jun-19 18:28 35.600664 -115.831014 26 11671ft 80kts
11-Jun-19 18:30 35.631174 -115.812609 25 11671ft 127kts
11-Jun-19 18:31 35.665296 -115.791797 25 11667ft 144kts
11-Jun-19 18:31 35.695699 -115.773285 25 11667ft 148kts
11-Jun-19 18:32 35.732970 -115.750592 25 11669ft 150kts
11-Jun-19 18:34 35.776823 -115.723883 25 11671ft 151kts
11-Jun-19 18:34 35.808344 -115.704672 25 11671ft 151kts
11-Jun-19 18:35 35.845982 -115.681730 25 11669ft 151kts
11-Jun-19 18:36 35.884127 -115.658467 25 11658ft 154kts
11-Jun-19 18:37 35.922828 -115.634860 25 11647ft 155kts
11-Jun-19 18:38 35.961733 -115.611122 25 11635ft 155kts
11-Jun-19 18:39 35.999515 -115.588079 25 11744ft 152kts
11-Jun-19 18:40 36.037734 -115.564736 25 11750ft 154kts
11-Jun-19 18:41 36.075515 -115.539614 33 11756ft 154kts
11-Jun-19 18:42 36.110995 -115.509553 33 11757ft 155kts
11-Jun-19 18:43 36.146685 -115.479248 33 11754ft 155kts
11-Jun-19 18:44 36.182327 -115.449085 33 11746ft 155kts
11-Jun-19 18:45 36.218110 -115.418789 33 11742ft 155kts
11-Jun-19 18:46 36.253831 -115.388534 33 11742ft 155kts
11-Jun-19 18:47 36.289484 -115.358324 33 11742ft 155kts
11-Jun-19 18:48 36.325967 -115.329477 30 11743ft 155kts
11-Jun-19 18:49 36.363136 -115.302517 30 11750ft 155kts
11-Jun-19 18:50 36.400394 -115.275486 30 11753ft 155kts
11-Jun-19 18:51 36.435299 -115.250148 30 11753ft 155kts
11-Jun-19 18:52 36.472507 -115.223122 30 11750ft 155kts
11-Jun-19 18:53 36.509905 -115.195970 28 11742ft 155kts
11-Jun-19 18:54 36.548802 -115.172953 25 11741ft 155kts
11-Jun-19 18:55 36.586000 -115.151158 25 11740ft 155kts
11-Jun-19 18:56 36.625043 -115.128279 25 11739ft 155kts
11-Jun-19 18:57 36.664205 -115.105324 25 11744ft 155kts
11-Jun-19 18:58 36.703160 -115.082480 25 11751ft 155kts
11-Jun-19 18:59 36.742281 -115.059524 25 11756ft 155kts
11-Jun-19 19:00 36.781033 -115.035901 31 11757ft 155kts
11-Jun-19 19:01 36.817975 -115.007934 31 11751ft 155kts
11-Jun-19 19:02 36.855136 -114.979781 30 11741ft 156kts
11-Jun-19 19:03 36.892206 -114.951705 30 11732ft 156kts
11-Jun-19 19:04 36.929071 -114.923132 30 11723ft 156kts
11-Jun-19 19:05 36.965576 -114.894800 30 11723ft 155kts
11-Jun-19 19:06 37.002246 -114.866442 30 11723ft 155kts
11-Jun-19 19:07 37.039087 -114.838210 30 11723ft 154kts
11-Jun-19 19:08 37.075097 -114.810928 30 11723ft 154kts
11-Jun-19 19:09 37.111425 -114.783763 30 11724ft 154kts
11-Jun-19 19:10 37.147878 -114.756785 30 11725ft 149kts
11-Jun-19 19:11 37.183373 -114.730578 30 11725ft 147kts
11-Jun-19 19:12 37.220960 -114.702725 30 11299ft 164kts
11-Jun-19 19:13 37.260645 -114.673334 30 10812ft 169kts
11-Jun-19 19:14 37.301339 -114.643311 30 10315ft 170kts
11-Jun-19 19:15 37.344935 -114.621797 16 9913ft 169kts
11-Jun-19 19:16 37.390421 -114.608294 13 9567ft 166kts
11-Jun-19 19:17 37.434362 -114.594658 17 9422ft 160kts
11-Jun-19 19:18 37.475840 -114.579288 16 9485ft 150kts
11-Jun-19 19:19 37.514448 -114.558410 28 9449ft 152kts
11-Jun-19 19:20 37.551854 -114.533687 27 9450ft 152kts
11-Jun-19 19:21 37.588411 -114.509326 22 9499ft 147kts
11-Jun-19 19:22 37.625397 -114.485814 26 9395ft 151kts
11-Jun-19 19:23 37.666551 -114.463949 22 8804ft 167kts
11-Jun-19 19:24 37.706741 -114.437164 34 7478ft 149kts
11-Jun-19 19:25 37.733405 -114.409252 11 6072ft 97kts
11-Jun-19 19:26 37.756772 -114.405263 358 5996ft 79kts
11-Jun-19 19:27 37.774733 -114.421217 345 5056ft 79kts
11-Jun-19 19:28 37.782425 -114.420346 32 4800ft 0kts

Navigation Log

Ident Type
Flight plan parsing failed, navigation log unavailable